createdAt,value
2017-06-15T00:00:03.897Z,67.80
2017-06-15T00:02:32.717Z,67.00
2017-06-15T00:05:01.540Z,66.60
2017-06-15T00:07:30.317Z,66.30
2017-06-15T00:09:59.097Z,66.50
2017-06-15T00:12:27.888Z,66.30
2017-06-15T00:14:56.660Z,66.40
2017-06-15T00:17:25.544Z,66.10
2017-06-15T00:19:54.316Z,65.80
2017-06-15T00:22:23.224Z,65.90
2017-06-15T00:24:52.005Z,65.30
2017-06-15T00:27:20.784Z,65.40
2017-06-15T00:29:54.776Z,66.80
2017-06-15T00:32:23.624Z,68.00
2017-06-15T00:34:52.408Z,68.50
2017-06-15T00:37:21.195Z,68.80
2017-06-15T00:39:49.960Z,67.90
2017-06-15T00:42:18.732Z,67.20
2017-06-15T00:44:47.520Z,67.90
2017-06-15T00:47:16.296Z,67.90
2017-06-15T00:49:45.116Z,67.60
2017-06-15T00:52:13.923Z,67.10
2017-06-15T00:54:42.700Z,67.10
2017-06-15T00:57:11.472Z,66.40
2017-06-15T00:59:41.236Z,66.80
2017-06-15T01:02:10.008Z,67.00
2017-06-15T01:04:38.771Z,66.90
2017-06-15T01:07:07.647Z,67.20
2017-06-15T01:09:36.880Z,66.70
2017-06-15T01:12:05.656Z,67.00
2017-06-15T01:14:34.455Z,66.90
2017-06-15T01:17:03.231Z,66.50
2017-06-15T01:19:32.003Z,66.20
2017-06-15T01:22:01.768Z,66.50
2017-06-15T01:24:30.603Z,66.50
2017-06-15T01:26:59.523Z,66.90
2017-06-15T01:29:28.423Z,66.20
2017-06-15T01:31:57.219Z,65.80
2017-06-15T01:34:26.031Z,65.70
2017-06-15T01:36:54.797Z,66.50
2017-06-15T01:39:23.711Z,66.00
2017-06-15T01:41:52.443Z,64.60
2017-06-15T01:44:21.267Z,64.80
2017-06-15T01:46:50.048Z,65.00
2017-06-15T01:49:18.963Z,64.70
2017-06-15T01:51:47.917Z,64.80
2017-06-15T01:54:16.692Z,64.20
2017-06-15T01:56:45.463Z,63.90
2017-06-15T01:59:14.243Z,63.70
2017-06-15T02:01:43.135Z,64.00
2017-06-15T02:04:11.898Z,64.10
2017-06-15T02:06:40.687Z,63.90
2017-06-15T02:09:09.502Z,64.30
2017-06-15T02:11:38.278Z,64.00
2017-06-15T02:14:07.875Z,63.70
2017-06-15T02:16:36.639Z,63.50
2017-06-15T02:19:05.750Z,63.30
2017-06-15T02:21:34.550Z,62.80
2017-06-15T02:24:03.324Z,62.40
2017-06-15T02:26:32.121Z,63.30
2017-06-15T02:29:01.018Z,63.00
2017-06-15T02:31:29.782Z,62.60
2017-06-15T02:33:59.502Z,63.50
2017-06-15T02:36:28.283Z,64.10
2017-06-15T02:38:57.991Z,64.00
2017-06-15T02:41:26.747Z,64.30
2017-06-15T02:43:55.578Z,63.60
2017-06-15T02:46:24.374Z,63.70
2017-06-15T02:48:53.142Z,64.10
2017-06-15T02:51:21.942Z,64.50
2017-06-15T02:53:50.730Z,64.80
2017-06-15T02:56:19.502Z,64.30
2017-06-15T02:58:48.274Z,64.60
2017-06-15T03:01:17.094Z,63.70
2017-06-15T03:03:45.870Z,64.20
2017-06-15T03:06:14.650Z,63.80
2017-06-15T03:08:43.426Z,63.40
2017-06-15T03:11:12.195Z,63.70
2017-06-15T03:13:40.978Z,62.70
2017-06-15T03:16:09.818Z,63.80
2017-06-15T03:18:38.602Z,64.10
2017-06-15T03:21:07.402Z,64.10
2017-06-15T03:23:36.282Z,63.20
2017-06-15T03:26:05.378Z,62.80
2017-06-15T03:28:34.265Z,63.00
2017-06-15T03:31:03.034Z,62.60
2017-06-15T03:33:31.841Z,61.90
2017-06-15T03:36:00.634Z,62.10
2017-06-15T03:38:29.413Z,62.80
2017-06-15T03:40:58.346Z,62.10
2017-06-15T03:43:27.193Z,61.80
2017-06-15T03:45:56.093Z,62.10
2017-06-15T03:48:24.986Z,63.00
2017-06-15T03:50:53.857Z,63.40
2017-06-15T03:53:22.618Z,64.20
2017-06-15T03:55:51.438Z,63.70
2017-06-15T03:58:20.349Z,63.50
2017-06-15T04:00:49.226Z,63.20
2017-06-15T04:03:18.001Z,63.90
2017-06-15T04:05:46.842Z,63.80
2017-06-15T04:08:16.069Z,64.20
2017-06-15T04:10:44.898Z,64.50
2017-06-15T04:13:13.681Z,64.80
2017-06-15T04:15:42.565Z,64.90
2017-06-15T04:18:11.337Z,65.30
2017-06-15T04:20:40.221Z,65.30
2017-06-15T04:23:09.117Z,65.00
2017-06-15T04:25:37.893Z,64.30
2017-06-15T04:28:06.701Z,63.20
2017-06-15T04:30:35.489Z,61.70
2017-06-15T04:33:04.473Z,60.90
2017-06-15T04:35:33.281Z,61.30
2017-06-15T04:38:02.085Z,61.00
2017-06-15T04:40:30.825Z,61.60
2017-06-15T04:42:59.601Z,62.70
2017-06-15T04:45:28.429Z,62.30
2017-06-15T04:47:57.297Z,63.40
2017-06-15T04:50:26.037Z,63.20
2017-06-15T04:52:54.993Z,66.20
2017-06-15T04:55:23.873Z,66.90
2017-06-15T04:57:52.649Z,66.70
2017-06-15T05:00:21.445Z,67.10
2017-06-15T05:02:51.069Z,67.20
2017-06-15T05:05:19.877Z,67.50
2017-06-15T05:07:48.657Z,66.50
2017-06-15T05:10:17.424Z,66.70
2017-06-15T05:12:46.321Z,67.60
2017-06-15T05:15:15.101Z,67.00
2017-06-15T05:17:43.897Z,67.70
2017-06-15T05:20:12.685Z,65.90
2017-06-15T05:22:41.449Z,67.70
2017-06-15T05:25:10.260Z,64.20
2017-06-15T05:27:39.056Z,67.40
2017-06-15T05:30:07.820Z,68.70
2017-06-15T05:32:36.600Z,69.10
2017-06-15T05:35:05.389Z,67.70
2017-06-15T05:37:34.188Z,65.20
2017-06-15T05:40:02.977Z,64.80
2017-06-15T05:42:31.828Z,63.40
2017-06-15T05:45:01.308Z,63.20
2017-06-15T05:47:30.152Z,63.20
2017-06-15T05:49:58.940Z,62.60
2017-06-15T05:52:27.720Z,61.60
2017-06-15T05:54:56.495Z,62.70
2017-06-15T05:57:25.273Z,63.80
2017-06-15T05:59:54.096Z,65.70
2017-06-15T06:02:22.976Z,64.90
2017-06-15T06:04:51.725Z,64.40
2017-06-15T06:07:20.560Z,63.10
2017-06-15T06:09:49.356Z,63.40
2017-06-15T06:12:18.264Z,64.10
2017-06-15T06:14:47.140Z,63.80
2017-06-15T06:17:15.916Z,62.50
2017-06-15T06:19:44.812Z,61.70
2017-06-15T06:22:14.240Z,62.80
2017-06-15T06:24:43.072Z,62.60
2017-06-15T06:27:11.852Z,61.00
2017-06-15T06:29:40.884Z,60.90
2017-06-15T06:32:09.653Z,61.10
2017-06-15T06:34:38.428Z,60.40
2017-06-15T06:37:07.712Z,59.90
2017-06-15T06:39:36.491Z,60.10
2017-06-15T06:42:05.255Z,61.20
2017-06-15T06:44:34.124Z,59.40
2017-06-15T06:47:02.888Z,59.30
2017-06-15T06:49:31.700Z,60.50
2017-06-15T06:52:00.569Z,59.10
2017-06-15T06:54:29.300Z,59.80
2017-06-15T06:56:58.155Z,59.90
2017-06-15T06:59:27.053Z,60.00
2017-06-15T07:01:55.836Z,58.80
2017-06-15T07:04:24.612Z,59.50
2017-06-15T07:06:53.379Z,59.30
2017-06-15T07:09:22.144Z,58.40
2017-06-15T07:11:50.991Z,57.60
2017-06-15T07:14:19.759Z,58.10
2017-06-15T07:16:48.543Z,57.80
2017-06-15T07:19:17.320Z,58.60
2017-06-15T07:21:46.132Z,57.30
2017-06-15T07:24:14.903Z,57.20
2017-06-15T07:26:43.687Z,56.80
2017-06-15T07:29:12.451Z,57.20
2017-06-15T07:31:41.236Z,57.00
2017-06-15T07:34:10.031Z,55.80
2017-06-15T07:36:38.796Z,55.50
2017-06-15T07:39:07.559Z,56.50
2017-06-15T07:41:36.439Z,55.70
2017-06-15T07:44:05.868Z,55.70
2017-06-15T07:46:34.723Z,55.60
2017-06-15T07:49:03.615Z,56.50
2017-06-15T07:51:32.383Z,55.20
2017-06-15T07:54:01.143Z,54.60
2017-06-15T07:56:29.979Z,53.50
2017-06-15T07:58:58.771Z,54.50
2017-06-15T08:01:27.544Z,53.40
2017-06-15T08:03:56.315Z,54.60
2017-06-15T08:06:25.087Z,55.20
2017-06-15T08:08:53.858Z,53.20
2017-06-15T08:11:22.638Z,52.80
2017-06-15T08:13:51.526Z,52.50
2017-06-15T08:16:20.386Z,53.50
2017-06-15T08:18:49.258Z,54.00
2017-06-15T08:21:17.979Z,52.90
2017-06-15T08:23:47.267Z,51.50
2017-06-15T08:26:16.050Z,51.70
2017-06-15T08:28:44.855Z,53.40
2017-06-15T08:31:13.670Z,51.80
2017-06-15T08:33:42.455Z,52.20
2017-06-15T08:36:11.215Z,52.10
2017-06-15T08:38:39.978Z,52.10
2017-06-15T08:41:08.774Z,50.90
2017-06-15T08:43:37.538Z,50.60
2017-06-15T08:46:06.306Z,50.10
2017-06-15T08:48:35.126Z,49.90
2017-06-15T08:51:03.914Z,52.10
2017-06-15T08:53:32.674Z,50.20
2017-06-15T08:56:01.446Z,51.00
2017-06-15T08:58:30.214Z,50.00
2017-06-15T09:00:58.974Z,51.00
2017-06-15T09:03:27.849Z,50.90
2017-06-15T09:05:56.646Z,48.40
2017-06-15T09:08:25.465Z,47.70
2017-06-15T09:10:54.321Z,46.40
2017-06-15T09:13:23.086Z,45.80
2017-06-15T09:15:51.891Z,46.50
2017-06-15T09:18:20.678Z,45.70
2017-06-15T09:20:49.441Z,46.70
2017-06-15T09:23:18.210Z,46.10
2017-06-15T09:25:46.989Z,43.80
2017-06-15T09:28:15.834Z,45.00
2017-06-15T09:30:44.593Z,43.20
2017-06-15T09:33:13.370Z,42.80
2017-06-15T09:35:42.134Z,43.50
2017-06-15T09:38:10.898Z,43.00
2017-06-15T09:40:39.699Z,44.60
2017-06-15T09:43:08.457Z,44.80
2017-06-15T09:45:37.270Z,45.10
2017-06-15T09:48:06.130Z,44.20
2017-06-15T09:50:34.894Z,43.70
2017-06-15T09:53:03.663Z,42.10
2017-06-15T09:55:32.469Z,43.30
2017-06-15T09:58:01.284Z,43.40
2017-06-15T10:00:30.057Z,44.20
2017-06-15T10:02:58.829Z,42.60
2017-06-15T10:05:27.633Z,44.40
2017-06-15T10:07:56.429Z,43.30
2017-06-15T10:10:26.705Z,42.40
2017-06-15T10:12:55.465Z,44.70
2017-06-15T10:15:24.229Z,44.20
2017-06-15T10:17:53.081Z,44.10
2017-06-15T10:20:21.841Z,42.90
2017-06-15T10:22:50.601Z,43.90
2017-06-15T10:25:19.390Z,42.40
2017-06-15T10:27:48.153Z,43.50
2017-06-15T10:30:16.929Z,44.30
2017-06-15T10:32:45.745Z,43.40
2017-06-15T10:35:14.537Z,42.90
2017-06-15T10:37:44.781Z,43.30
2017-06-15T10:40:13.549Z,43.90
2017-06-15T10:42:42.439Z,45.90
2017-06-15T10:45:11.226Z,44.20
2017-06-15T10:47:40.001Z,44.40
2017-06-15T10:50:08.764Z,44.40
2017-06-15T10:52:37.536Z,43.10
2017-06-15T10:55:06.301Z,42.50
2017-06-15T10:57:35.069Z,43.00
2017-06-15T11:00:03.869Z,42.30
2017-06-15T11:02:32.725Z,41.70
2017-06-15T11:05:01.493Z,43.00
2017-06-15T11:07:30.286Z,43.50
2017-06-15T11:09:58.364Z,43.50
2017-06-15T11:12:27.129Z,43.50
2017-06-15T11:14:55.900Z,42.10
2017-06-15T11:17:24.668Z,42.10
2017-06-15T11:19:53.617Z,42.70
2017-06-15T11:22:22.361Z,42.20
2017-06-15T11:24:51.125Z,43.00
2017-06-15T11:27:19.896Z,43.50
2017-06-15T11:29:48.673Z,42.40
2017-06-15T11:32:17.440Z,42.50
2017-06-15T11:34:46.473Z,41.20
2017-06-15T11:37:15.861Z,42.20
2017-06-15T11:39:44.622Z,41.20
2017-06-15T11:42:13.438Z,40.60
2017-06-15T11:44:42.220Z,40.80
2017-06-15T11:47:10.997Z,40.90
2017-06-15T11:49:39.760Z,41.20
2017-06-15T11:52:08.532Z,41.00
2017-06-15T11:54:37.912Z,42.40
2017-06-15T11:57:06.692Z,42.00
2017-06-15T11:59:35.473Z,42.30
2017-06-15T12:02:04.248Z,42.20
2017-06-15T12:04:33.752Z,42.80
2017-06-15T12:07:02.528Z,41.70
2017-06-15T12:09:31.303Z,42.10
2017-06-15T12:12:00.068Z,42.80
2017-06-15T12:14:29.824Z,42.40
2017-06-15T12:16:58.600Z,41.80
2017-06-15T12:19:27.372Z,41.50
2017-06-15T12:21:56.320Z,42.00
2017-06-15T12:24:25.084Z,41.30
2017-06-15T12:26:53.852Z,41.30
2017-06-15T12:29:23.444Z,40.80
2017-06-15T12:31:52.263Z,40.40
2017-06-15T12:34:21.047Z,40.50
2017-06-15T12:36:49.939Z,41.10
2017-06-15T12:39:18.724Z,41.50
2017-06-15T12:41:48.228Z,42.70
2017-06-15T12:44:17.012Z,41.10
2017-06-15T12:46:45.795Z,40.80
2017-06-15T12:49:14.556Z,40.30
2017-06-15T12:51:43.395Z,41.30
2017-06-15T12:54:12.188Z,41.30
2017-06-15T12:56:40.943Z,41.30
2017-06-15T12:59:09.743Z,39.60
2017-06-15T13:01:39.260Z,38.80
2017-06-15T13:04:08.163Z,38.50
2017-06-15T13:06:36.943Z,37.00
2017-06-15T13:09:05.715Z,39.40
2017-06-15T13:11:34.919Z,38.70
2017-06-15T13:14:03.704Z,39.20
2017-06-15T13:16:32.488Z,37.90
2017-06-15T13:19:02.159Z,37.70
2017-06-15T13:21:30.967Z,38.60
2017-06-15T13:23:59.747Z,38.50
2017-06-15T13:26:28.555Z,38.00
2017-06-15T13:28:57.343Z,38.60
2017-06-15T13:31:26.107Z,37.40
2017-06-15T13:33:54.919Z,36.00
2017-06-15T13:36:24.159Z,37.20
2017-06-15T13:38:52.939Z,35.90
2017-06-15T13:41:21.703Z,37.10
2017-06-15T13:43:50.475Z,37.10
2017-06-15T13:46:19.247Z,37.00
2017-06-15T13:48:48.007Z,36.40
2017-06-15T13:51:16.807Z,36.50
2017-06-15T13:53:45.575Z,37.50
2017-06-15T13:56:14.363Z,36.90
2017-06-15T13:58:43.207Z,34.40
2017-06-15T14:01:11.999Z,36.20
2017-06-15T14:03:40.783Z,36.60
2017-06-15T14:06:09.679Z,38.10
2017-06-15T14:08:38.447Z,39.50
2017-06-15T14:11:07.279Z,37.50
2017-06-15T14:13:36.139Z,38.90
2017-06-15T14:16:04.899Z,35.50
2017-06-15T14:18:33.667Z,36.70
2017-06-15T14:21:02.495Z,37.40
2017-06-15T14:23:31.283Z,37.10
2017-06-15T14:26:00.043Z,37.00
2017-06-15T14:28:28.847Z,36.00
2017-06-15T14:30:57.575Z,35.60
2017-06-15T14:33:26.411Z,35.70
2017-06-15T14:35:55.215Z,36.40
2017-06-15T14:38:24.007Z,38.70
2017-06-15T14:40:52.771Z,39.90
2017-06-15T14:43:21.583Z,38.50
2017-06-15T14:45:50.351Z,38.80
2017-06-15T14:48:19.380Z,37.00
2017-06-15T14:50:48.127Z,38.80
2017-06-15T14:53:16.938Z,38.30
2017-06-15T14:55:45.722Z,38.50
2017-06-15T14:58:14.502Z,37.60
2017-06-15T15:00:43.298Z,38.50
2017-06-15T15:03:12.182Z,38.50
2017-06-15T15:05:40.954Z,38.30
2017-06-15T15:08:09.714Z,38.00
2017-06-15T15:10:38.477Z,39.80
2017-06-15T15:13:07.251Z,40.10
2017-06-15T15:15:36.016Z,40.10
2017-06-15T15:18:04.815Z,40.10
2017-06-15T15:20:33.702Z,41.40
2017-06-15T15:23:02.478Z,42.20
2017-06-15T15:25:31.283Z,42.00
2017-06-15T15:28:00.070Z,41.90
2017-06-15T15:30:28.830Z,41.80
2017-06-15T15:32:57.590Z,41.90
2017-06-15T15:35:26.426Z,41.70
2017-06-15T15:37:55.206Z,41.80
2017-06-15T15:40:24.976Z,42.80
2017-06-15T15:42:53.910Z,42.90
2017-06-15T15:45:22.706Z,42.90
2017-06-15T15:47:51.474Z,42.10
2017-06-15T15:50:20.282Z,42.40
2017-06-15T15:52:49.050Z,42.00
2017-06-15T15:55:17.814Z,42.10
2017-06-15T15:57:46.641Z,42.30
2017-06-15T16:00:15.405Z,44.40
2017-06-15T16:02:44.578Z,43.80
2017-06-15T16:05:13.414Z,44.10
2017-06-15T16:07:42.201Z,44.10
2017-06-15T16:10:10.989Z,43.60
2017-06-15T16:12:39.882Z,43.20
2017-06-15T16:15:08.649Z,43.30
2017-06-15T16:17:37.445Z,43.60
2017-06-15T16:20:06.241Z,43.90
2017-06-15T16:22:35.029Z,42.70
2017-06-15T16:25:03.822Z,42.50
2017-06-15T16:27:32.597Z,42.10
2017-06-15T16:30:01.393Z,41.50
2017-06-15T16:32:30.158Z,40.40
2017-06-15T16:34:58.969Z,40.90
2017-06-15T16:37:26.965Z,40.90
2017-06-15T16:39:55.753Z,42.60
2017-06-15T16:42:24.613Z,43.20
2017-06-15T16:44:53.376Z,43.00
2017-06-15T16:47:22.189Z,41.60
2017-06-15T16:49:50.977Z,41.60
2017-06-15T16:52:19.742Z,41.80
2017-06-15T16:54:48.516Z,43.20
2017-06-15T16:57:17.300Z,43.00
2017-06-15T16:59:46.132Z,42.70
2017-06-15T17:02:14.917Z,43.80
2017-06-15T17:04:43.694Z,43.70
2017-06-15T17:07:12.850Z,43.70
2017-06-15T17:09:41.601Z,44.10
2017-06-15T17:12:10.389Z,44.10
2017-06-15T17:14:39.157Z,43.60
2017-06-15T17:17:07.949Z,43.70
2017-06-15T17:19:36.737Z,43.90
2017-06-15T17:22:05.524Z,44.00
2017-06-15T17:24:34.313Z,44.10
2017-06-15T17:27:03.088Z,44.20
2017-06-15T17:29:31.889Z,44.50
2017-06-15T17:32:00.705Z,44.70
2017-06-15T17:34:29.489Z,44.60
2017-06-15T17:36:58.257Z,44.70
2017-06-15T17:39:28.005Z,45.30
2017-06-15T17:41:56.860Z,45.40
2017-06-15T17:44:25.636Z,45.30
2017-06-15T17:46:54.424Z,45.40
2017-06-15T17:49:23.232Z,45.50
2017-06-15T17:51:52.004Z,45.30
2017-06-15T18:07:07.044Z,44.00
2017-06-15T18:09:35.821Z,44.20
2017-06-15T18:12:04.588Z,44.20
2017-06-15T18:14:34.305Z,44.30
2017-06-15T18:17:03.067Z,43.90
2017-06-15T18:19:31.912Z,43.30
2017-06-15T18:22:00.688Z,42.70
2017-06-15T18:24:29.479Z,43.20
2017-06-15T18:26:58.275Z,43.00
2017-06-15T18:29:27.072Z,42.40
2017-06-15T18:31:56.144Z,42.30
2017-06-15T18:34:24.908Z,42.50
2017-06-15T18:36:53.732Z,42.30
2017-06-15T18:39:22.519Z,42.20
2017-06-15T18:41:52.038Z,42.10
2017-06-15T18:44:20.811Z,42.10
2017-06-15T18:46:49.575Z,42.50
2017-06-15T18:49:18.343Z,42.80
2017-06-15T18:51:47.155Z,43.20
2017-06-15T18:54:15.963Z,45.20
2017-06-15T18:56:44.752Z,46.00
2017-06-15T18:59:13.651Z,45.40
2017-06-15T19:01:43.039Z,46.00
2017-06-15T19:04:11.832Z,47.20
2017-06-15T19:06:40.611Z,45.70
2017-06-15T19:09:09.411Z,46.20
2017-06-15T19:11:38.200Z,46.20
2017-06-15T19:14:07.087Z,45.20
2017-06-15T19:16:35.880Z,45.10
2017-06-15T19:19:03.876Z,45.10
2017-06-15T19:21:32.668Z,46.80
2017-06-15T19:24:01.543Z,46.10
2017-06-15T19:26:30.328Z,46.20
2017-06-15T19:28:59.091Z,46.80
2017-06-15T19:31:27.856Z,48.00
2017-06-15T19:33:57.543Z,51.10
2017-06-15T19:36:26.319Z,53.90
2017-06-15T19:38:55.098Z,56.00
2017-06-15T19:41:23.943Z,56.00
2017-06-15T19:43:52.679Z,56.00
2017-06-15T19:46:21.467Z,56.00
2017-06-15T19:48:50.243Z,55.90
2017-06-15T19:51:19.015Z,52.80
2017-06-15T19:53:47.778Z,52.20
2017-06-15T19:56:16.541Z,54.00
2017-06-15T19:58:45.363Z,55.20
2017-06-15T20:01:14.147Z,55.90
2017-06-15T20:03:42.914Z,55.60
2017-06-15T20:06:11.703Z,55.20
2017-06-15T20:08:40.462Z,55.00
2017-06-15T20:11:09.251Z,55.50
2017-06-15T20:13:38.054Z,55.30
2017-06-15T20:16:06.815Z,54.60
2017-06-15T20:18:34.815Z,54.60
2017-06-15T20:21:03.602Z,52.80
2017-06-15T20:23:32.379Z,52.30
2017-06-15T20:26:01.143Z,52.40
2017-06-15T20:28:29.167Z,52.40
2017-06-15T20:30:57.930Z,51.10
2017-06-15T20:33:28.471Z,52.20
2017-06-15T20:35:57.262Z,52.80
2017-06-15T20:38:26.054Z,53.80
2017-06-15T20:40:54.794Z,55.10
2017-06-15T20:43:23.587Z,55.60
2017-06-15T20:45:52.362Z,56.10
2017-06-15T20:48:21.146Z,55.40
2017-06-15T20:50:49.974Z,56.10
2017-06-15T20:53:18.742Z,57.20
2017-06-15T20:55:48.019Z,58.40
2017-06-15T20:58:16.814Z,59.00
2017-06-15T21:00:45.570Z,59.10
2017-06-15T21:03:14.338Z,58.60
2017-06-15T21:05:43.154Z,58.00
2017-06-15T21:08:11.922Z,57.60
2017-06-15T21:10:40.686Z,57.80
2017-06-15T21:13:09.478Z,57.40
2017-06-15T21:15:38.278Z,57.10
2017-06-15T21:18:07.006Z,56.60
2017-06-15T21:20:35.781Z,57.00
2017-06-15T21:23:04.575Z,57.20
2017-06-15T21:25:33.338Z,57.40
2017-06-15T21:28:02.126Z,57.70
2017-06-15T21:30:30.886Z,57.30
2017-06-15T21:32:59.653Z,57.10
2017-06-15T21:35:28.457Z,56.90
2017-06-15T21:37:57.224Z,56.30
2017-06-15T21:40:26.001Z,56.40
2017-06-15T21:42:54.790Z,56.60
2017-06-15T21:45:23.541Z,56.10
2017-06-15T21:47:52.306Z,56.40
2017-06-15T21:50:20.329Z,56.40
2017-06-15T21:52:49.169Z,55.90
2017-06-15T21:55:17.934Z,56.90
2017-06-15T21:57:46.706Z,57.30
2017-06-15T22:00:15.493Z,57.90
2017-06-15T22:02:44.270Z,59.60
2017-06-15T22:05:13.059Z,60.50
2017-06-15T22:07:41.898Z,59.10
2017-06-15T22:10:10.617Z,57.80
2017-06-15T22:12:39.401Z,57.30
2017-06-15T22:15:08.194Z,57.10
2017-06-15T22:17:36.957Z,57.10
2017-06-15T22:20:05.745Z,57.00
2017-06-15T22:22:34.517Z,56.90
2017-06-15T22:25:03.274Z,56.80
2017-06-15T22:27:32.242Z,56.90
2017-06-15T22:30:01.030Z,56.80
2017-06-15T22:32:29.813Z,57.00
2017-06-15T22:34:58.600Z,57.30
2017-06-15T22:37:27.453Z,57.80
2017-06-15T22:39:56.193Z,57.80
2017-06-15T22:42:24.976Z,58.10
2017-06-15T22:44:53.812Z,58.50
2017-06-15T22:47:22.577Z,59.10
2017-06-15T22:49:51.377Z,59.40
2017-06-15T22:52:20.177Z,59.60
2017-06-15T22:54:48.937Z,59.70
2017-06-15T22:57:17.733Z,60.00
2017-06-15T22:59:46.492Z,60.20
2017-06-15T23:02:15.265Z,60.80
2017-06-15T23:04:44.064Z,60.80
2017-06-15T23:07:12.829Z,61.30
2017-06-15T23:09:41.599Z,61.80
2017-06-15T23:12:10.376Z,62.10
2017-06-15T23:14:39.260Z,62.40
2017-06-15T23:17:08.061Z,62.80
2017-06-15T23:19:36.857Z,63.20
2017-06-15T23:22:05.621Z,64.10
2017-06-15T23:24:34.381Z,63.30
2017-06-15T23:27:03.172Z,63.60
2017-06-15T23:29:31.945Z,63.80
2017-06-15T23:32:00.708Z,64.00
2017-06-15T23:34:29.504Z,64.40
2017-06-15T23:36:58.256Z,64.90
2017-06-15T23:39:27.032Z,65.30
2017-06-15T23:41:55.936Z,65.70
2017-06-15T23:44:24.816Z,65.60
2017-06-15T23:46:53.540Z,65.50
2017-06-15T23:49:22.320Z,65.60
2017-06-15T23:51:51.084Z,65.80
2017-06-15T23:54:19.863Z,65.90
2017-06-15T23:56:48.653Z,66.00
2017-06-15T23:59:17.596Z,66.20
